
Distance (Route):
Temperature : -51.8°C
Humidity : 36.9%
Pressure : 0hPa| Receiver | Date | Latitude | Longitude | Direction | Speed | Altitude | Climb | Temperature | Humidity | Pressure | Voltage | Killtimer | Uptime | BKT | XDATA |
|---|---|---|---|---|---|---|---|---|---|---|---|---|---|---|---|
| LZ4TU-5 | 2026-09-04 18:53:52 | 42.90220 | 20.01949 | 182° | 60km/h | 11616m | -19.6m/s | -51.8°C | 36.9% | 0hPa | 0V | 00:00:00 | 00:00:00 | 00:00:00 | |
| LZ4TU-5 | 2026-09-04 18:53:47 | 42.90297 | 20.01953 | 186° | 62km/h | 11711m | -20.4m/s | -52.7°C | 34.5% | 0hPa | 0V | 00:00:00 | 00:00:00 | 00:00:00 | |
| LZ4TU-5 | 2026-09-04 18:51:56 | 42.92236 | 20.02376 | 192° | 53km/h | 14167m | -24.8m/s | -63.5°C | 0.0% | 0hPa | 0V | 00:00:00 | 00:00:00 | 00:00:00 | |
| LZ4TU-5 | 2026-09-04 18:51:52 | 42.92284 | 20.02385 | 181° | 44km/h | 14267m | -24.9m/s | -62.4°C | 0.0% | 0hPa | 0V | 00:00:00 | 00:00:00 | 00:00:00 | |
| LZ4TU-5 | 2026-09-04 18:50:43 | 42.92749 | 20.02053 | 139° | 16km/h | 16061m | -27.0m/s | -60.1°C | 0.0% | 0hPa | 0V | 00:00:00 | 00:00:00 | 00:00:00 | |
| LZ4TU-5 | 2026-09-04 18:50:38 | 42.92768 | 20.02037 | 138° | 20km/h | 16196m | -27.7m/s | -60.3°C | 0.0% | 0hPa | 0V | 00:00:00 | 00:00:00 | 00:00:00 | |
| LZ4TU-5 | 2026-09-04 18:49:33 | 42.92982 | 20.01727 | 113° | 9km/h | 18104m | -32.7m/s | -60.4°C | 0.0% | 0hPa | 0V | 00:00:00 | 00:00:00 | 00:00:00 | |
| LZ4TU-5 | 2026-09-04 18:49:28 | 42.92984 | 20.01710 | 85° | 13km/h | 18268m | -31.9m/s | -60.4°C | 0.0% | 0hPa | 0V | 00:00:00 | 00:00:00 | 00:00:00 | |
| LZ4TU-5 | 2026-09-04 18:48:11 | 42.93006 | 20.01423 | 84° | 11km/h | 20821m | -34.4m/s | -56.2°C | 0.0% | 0hPa | 0V | 00:00:00 | 00:00:00 | 00:00:00 | |
| LZ4TU-5 | 2026-09-04 18:48:06 | 42.93006 | 20.01404 | 105° | 11km/h | 20989m | -33.7m/s | -55.3°C | 0.0% | 0hPa | 0V | 00:00:00 | 00:00:00 | 00:00:00 | |
| LZ4TU-5 | 2026-09-04 18:46:52 | 42.93131 | 20.01368 | 245° | 13km/h | 23242m | -28.8m/s | -53.8°C | 0.0% | 0hPa | 0V | 00:00:00 | 00:00:00 | 00:00:00 | |
| LZ4TU-5 | 2026-09-04 18:46:48 | 42.93135 | 20.01379 | 259° | 7km/h | 23355m | -30.8m/s | -54.0°C | 0.0% | 0hPa | 0V | 00:00:00 | 00:00:00 | 00:00:00 | |
| LZ4TU-5 | 2026-09-04 18:46:43 | 42.93132 | 20.01388 | 326° | 2km/h | 23502m | -32.8m/s | -54.0°C | 0.0% | 0hPa | 0V | 00:00:00 | 00:00:00 | 00:00:00 | |
| LZ4TU-5 | 2026-09-04 18:44:11 | 42.93156 | 20.01723 | 286° | 9km/h | 28476m | -36.8m/s | -43.8°C | 0.0% | 0hPa | 0V | 00:00:00 | 00:00:00 | 00:00:00 | |
| LZ4TU-5 | 2026-09-04 18:44:07 | 42.93154 | 20.01734 | 264° | 9km/h | 28621m | -35.5m/s | -43.1°C | 0% | 0hPa | 0V | 00:00:00 | 00:00:00 | 00:00:00 | |
| LZ4TU-5 | 2026-09-04 18:44:02 | 42.93166 | 20.01754 | 222° | 16km/h | 28819m | -36.0m/s | -43.0°C | 0.0% | 0hPa | 0V | 00:00:00 | 00:00:00 | 00:00:00 | |
| LZ4TU-5 | 2026-09-04 18:43:56 | 42.93172 | 20.01779 | 282° | 18km/h | 29011m | -39.8m/s | -42.6°C | 0.0% | 0hPa | 0V | 00:00:00 | 00:00:00 | 00:00:00 | |
| LZ4TU-5 | 2026-09-04 18:42:42 | 42.93111 | 20.01982 | 155° | 13km/h | 31822m | -23.9m/s | -40.7°C | 0.0% | 0hPa | 0V | 00:00:00 | 00:00:00 | 00:00:00 | |
| OM5KV | 2026-09-04 18:42:39 | 42.93114 | 20.01997 | 298° | 31km/h | 31901m | -28.6m/s | -40.4°C | 0.0% | 0hPa | 0V | 00:00:00 | 00:00:00 | 00:00:00 | |
| LZ4TU-5 | 2026-09-04 18:42:38 | 42.93109 | 20.02006 | 318° | 27km/h | 31932m | -31.0m/s | -40.4°C | 0.0% | 0hPa | 0V | 00:00:00 | 00:00:00 | 00:00:00 | |
| LZ4TU-5 | 2026-09-04 18:42:33 | 42.93105 | 20.01970 | 104° | 35km/h | 32027m | 6.9m/s | -40.4°C | 0.0% | 0hPa | 0V | 00:00:00 | 00:00:00 | 00:00:00 | |
| LZ4TU-5 | 2026-09-04 18:41:18 | 42.93114 | 20.02032 | 116° | 15km/h | 31501m | 7.1m/s | -42.6°C | 0.0% | 0hPa | 0V | 00:00:00 | 00:00:00 | 00:00:00 | |
| LZ4TU-5 | 2026-09-04 18:41:14 | 42.93114 | 20.02024 | 4° | 4km/h | 31472m | 7.1m/s | -42.5°C | 0.0% | 0hPa | 0V | 00:00:00 | 00:00:00 | 00:00:00 | |
| LZ4TU-5 | 2026-09-04 18:39:29 | 42.93101 | 20.02224 | 174° | 7km/h | 30718m | 7.0m/s | -42.5°C | 0.0% | 0hPa | 0V | 00:00:00 | 00:00:00 | 00:00:00 | |
| LZ4TU-5 | 2026-09-04 18:39:24 | 42.93077 | 20.02222 | 357° | 26km/h | 30682m | 6.2m/s | -42.6°C | 0.0% | 0hPa | 0V | 00:00:00 | 00:00:00 | 00:00:00 | |
| LZ4TU-5 | 2026-09-04 18:37:49 | 42.92880 | 20.02517 | 289° | 29km/h | 30028m | 6.5m/s | -42.7°C | 0.0% | 0hPa | 0V | 00:00:00 | 00:00:00 | 00:00:00 | |
| LZ4TU-5 | 2026-09-04 18:37:44 | 42.92874 | 20.02555 | 253° | 5km/h | 29996m | 5.4m/s | -42.8°C | 0% | 0hPa | 0V | 00:00:00 | 00:00:00 | 00:00:00 | |
| LZ4TU-5 | 2026-09-04 18:36:25 | 42.92851 | 20.03108 | 0° | 0km/h | 29487m | 8.1m/s | -44.6°C | 0.0% | 0hPa | 0V | 00:00:00 | 00:00:00 | 00:00:00 | |
| LZ4TU-5 | 2026-09-04 18:36:20 | 42.92854 | 20.03123 | 258° | 27km/h | 29454m | 6.4m/s | -44.6°C | 0.0% | 0hPa | 0V | 00:00:00 | 00:00:00 | 00:00:00 | |
| LZ4TU-5 | 2026-09-04 18:35:04 | 42.92897 | 20.03529 | 229° | 29km/h | 28947m | 5.9m/s | -44.1°C | 0.0% | 0hPa | 0V | 00:00:00 | 00:00:00 | 00:00:00 | |
| LZ4TU-5 | 2026-09-04 18:34:59 | 42.92913 | 20.03544 | 177° | 4km/h | 28915m | 4.9m/s | -44.3°C | 0.0% | 0hPa | 0V | 00:00:00 | 00:00:00 | 00:00:00 | |
| LZ4TU-5 | 2026-09-04 18:33:43 | 42.92949 | 20.03884 | 194° | 9km/h | 28417m | 6.0m/s | -44.8°C | 0.0% | 0hPa | 0V | 00:00:00 | 00:00:00 | 00:00:00 | |
| LZ4TU-5 | 2026-09-04 18:33:39 | 42.92956 | 20.03917 | 264° | 37km/h | 28389m | 7.2m/s | -44.8°C | 0.0% | 0hPa | 0V | 00:00:00 | 00:00:00 | 00:00:00 | |
| LZ4TU-5 | 2026-09-04 18:32:24 | 42.93145 | 20.04070 | 159° | 24km/h | 27879m | 7.0m/s | -46.6°C | 0.0% | 0hPa | 0V | 00:00:00 | 00:00:00 | 00:00:00 | |
| LZ4TU-5 | 2026-09-04 18:32:20 | 42.93159 | 20.04058 | 63° | 5km/h | 27854m | 5.7m/s | -46.7°C | 0.0% | 0hPa | 0V | 00:00:00 | 00:00:00 | 00:00:00 | |
| LZ4TU-5 | 2026-09-04 18:31:05 | 42.93264 | 20.03889 | 350° | 15km/h | 27357m | 6.2m/s | -47.8°C | 0.0% | 0hPa | 0V | 00:00:00 | 00:00:00 | 00:00:00 | |
| LZ4TU-5 | 2026-09-04 18:31:00 | 42.93249 | 20.03868 | 106° | 24km/h | 27326m | 7.3m/s | -47.6°C | 0.0% | 0hPa | 0V | 00:00:00 | 00:00:00 | 00:00:00 | |
| LZ4TU-5 | 2026-09-04 18:29:45 | 42.93112 | 20.03804 | 304° | 13km/h | 26843m | 6.7m/s | -48.8°C | 0.0% | 0hPa | 0V | 00:00:00 | 00:00:00 | 00:00:00 | |
| LZ4TU-5 | 2026-09-04 18:29:41 | 42.93101 | 20.03829 | 323° | 29km/h | 26819m | 6.4m/s | -48.8°C | 0.0% | 0hPa | 0V | 00:00:00 | 00:00:00 | 00:00:00 | |
| LZ4TU-5 | 2026-09-04 18:28:26 | 42.92893 | 20.04101 | 262° | 22km/h | 26340m | 6.1m/s | -50.2°C | 0.0% | 0hPa | 0V | 00:00:00 | 00:00:00 | 00:00:00 | |
| LZ4TU-5 | 2026-09-04 18:28:22 | 42.92875 | 20.04123 | 331° | 38km/h | 26313m | 5.7m/s | -50.2°C | 0.0% | 0hPa | 0V | 00:00:00 | 00:00:00 | 00:00:00 | |
| LZ4TU-5 | 2026-09-04 18:26:59 | 42.92737 | 20.04516 | 10° | 22km/h | 25786m | 7.6m/s | -50.0°C | 0.0% | 0hPa | 0V | 00:00:00 | 00:00:00 | 00:00:00 | |
| LZ4TU-5 | 2026-09-04 18:26:54 | 42.92717 | 20.04529 | 339° | 15km/h | 25754m | 6.1m/s | -50.0°C | 0.0% | 0hPa | 0V | 00:00:00 | 00:00:00 | 00:00:00 | |
| LZ4TU-5 | 2026-09-04 18:25:40 | 42.92680 | 20.05073 | 225° | 18km/h | 25278m | 5.6m/s | -49.9°C | 0.0% | 0hPa | 0V | 00:00:00 | 00:00:00 | 00:00:00 | |
| LZ4TU-5 | 2026-09-04 18:25:35 | 42.92694 | 20.05094 | 249° | 22km/h | 25247m | 6.2m/s | -49.8°C | 0.0% | 0hPa | 0V | 00:00:00 | 00:00:00 | 00:00:00 | |
| LZ4TU-5 | 2026-09-04 18:24:14 | 42.92812 | 20.05325 | 236° | 9km/h | 24749m | 5.8m/s | -52.0°C | 0.0% | 0hPa | 0V | 00:00:00 | 00:00:00 | 00:00:00 | |
| LZ4TU-5 | 2026-09-04 18:24:09 | 42.92809 | 20.05327 | 126° | 16km/h | 24719m | 6.2m/s | -52.4°C | 0.0% | 0hPa | 0V | 00:00:00 | 00:00:00 | 00:00:00 | |
| LZ4TU-5 | 2026-09-04 18:24:04 | 42.92826 | 20.05321 | 220° | 18km/h | 24686m | 6.3m/s | -52.2°C | 0.0% | 0hPa | 0V | 00:00:00 | 00:00:00 | 00:00:00 | |
| LZ4TU-5 | 2026-09-04 18:22:42 | 42.92948 | 20.05437 | 218° | 26km/h | 24175m | 5.3m/s | -53.3°C | 0.0% | 0hPa | 0V | 00:00:00 | 00:00:00 | 00:00:00 | |
| LZ4TU-5 | 2026-09-04 18:22:37 | 42.92973 | 20.05449 | 206° | 16km/h | 24144m | 7.2m/s | -53.3°C | 0.0% | 0hPa | 0V | 00:00:00 | 00:00:00 | 00:00:00 | |
| LZ4TU-5 | 2026-09-04 18:21:14 | 42.93143 | 20.05409 | 166° | 5km/h | 23622m | 4.7m/s | -53.8°C | 0.0% | 0hPa | 0V | 00:00:00 | 00:00:00 | 00:00:00 | |
| LZ4TU-5 | 2026-09-04 18:21:09 | 42.93133 | 20.05397 | 50° | 15km/h | 23592m | 6.4m/s | -53.7°C | 0.0% | 0hPa | 0V | 00:00:00 | 00:00:00 | 00:00:00 | |
| LZ4TU-5 | 2026-09-04 18:19:48 | 42.93168 | 20.05566 | 265° | 15km/h | 23107m | 5.3m/s | -53.4°C | 0.0% | 0hPa | 0V | 00:00:00 | 00:00:00 | 00:00:00 | |
| LZ4TU-5 | 2026-09-04 18:19:43 | 42.93176 | 20.05567 | 173° | 9km/h | 23076m | 6.4m/s | -53.3°C | 0.0% | 0hPa | 0V | 00:00:00 | 00:00:00 | 00:00:00 | |
| LZ4TU-5 | 2026-09-04 18:18:19 | 42.93195 | 20.05559 | 302° | 5km/h | 22580m | 4.8m/s | -55.4°C | 0.0% | 0hPa | 0V | 00:00:00 | 00:00:00 | 00:00:00 | |
| LZ4TU-5 | 2026-09-04 18:18:14 | 42.93185 | 20.05571 | 309° | 13km/h | 22552m | 5.9m/s | -55.5°C | 0.0% | 0hPa | 0V | 00:00:00 | 00:00:00 | 00:00:00 | |
| LZ4TU-5 | 2026-09-04 18:16:59 | 42.93493 | 20.05434 | 144° | 33km/h | 22095m | 6.1m/s | -54.1°C | 0.0% | 0hPa | 0V | 00:00:00 | 00:00:00 | 00:00:00 | |
| LZ4TU-5 | 2026-09-04 18:16:54 | 42.93526 | 20.05399 | 141° | 26km/h | 22064m | 6.3m/s | -53.9°C | 0.0% | 0hPa | 0V | 00:00:00 | 00:00:00 | 00:00:00 | |
| LZ4TU-5 | 2026-09-04 18:15:39 | 42.93521 | 20.05154 | 0° | 0km/h | 21608m | 6.8m/s | -55.0°C | 0.0% | 0hPa | 0V | 00:00:00 | 00:00:00 | 00:00:00 | |
| LZ4TU-5 | 2026-09-04 18:15:34 | 42.93513 | 20.05150 | 0° | 0km/h | 21579m | 5.2m/s | -54.9°C | 0.0% | 0hPa | 0V | 00:00:00 | 00:00:00 | 00:00:00 | |
| LZ4TU-5 | 2026-09-04 18:14:18 | 42.93630 | 20.05026 | 190° | 9km/h | 21127m | 6.6m/s | -55.5°C | 0.0% | 0hPa | 0V | 00:00:00 | 00:00:00 | 00:00:00 | |
| LZ4TU-5 | 2026-09-04 18:14:13 | 42.93643 | 20.05011 | 110° | 29km/h | 21098m | 5.8m/s | -55.7°C | 0.0% | 0hPa | 0V | 00:00:00 | 00:00:00 | 00:00:00 | |
| LZ4TU-5 | 2026-09-04 18:12:57 | 42.93560 | 20.04750 | 130° | 9km/h | 20663m | 4.8m/s | -57.0°C | 0.0% | 0hPa | 0V | 00:00:00 | 00:00:00 | 00:00:00 | |
| LZ4TU-5 | 2026-09-04 18:12:53 | 42.93551 | 20.04738 | 28° | 22km/h | 20642m | 3.7m/s | -57.0°C | 0.0% | 0hPa | 0V | 00:00:00 | 00:00:00 | 00:00:00 | |
| LZ4TU-5 | 2026-09-04 18:11:39 | 42.93404 | 20.04649 | 300° | 5km/h | 20216m | 6.8m/s | -56.9°C | 0.0% | 0hPa | 0V | 00:00:00 | 00:00:00 | 00:00:00 | |
| LZ4TU-5 | 2026-09-04 18:11:34 | 42.93393 | 20.04657 | 304° | 16km/h | 20185m | 5.8m/s | -56.8°C | 0.0% | 0hPa | 0V | 00:00:00 | 00:00:00 | 00:00:00 | |
| LZ4TU-5 | 2026-09-04 18:10:19 | 42.93525 | 20.04550 | 129° | 16km/h | 19765m | 7.5m/s | -58.0°C | 0.0% | 0hPa | 0V | 00:00:00 | 00:00:00 | 00:00:00 | |
| LZ4TU-5 | 2026-09-04 18:10:15 | 42.93534 | 20.04524 | 106° | 22km/h | 19743m | 5.1m/s | -57.8°C | 0.0% | 0hPa | 0V | 00:00:00 | 00:00:00 | 00:00:00 | |
| LZ4TU-5 | 2026-09-04 18:09:07 | 42.93496 | 20.04366 | 220° | 13km/h | 19369m | 5.4m/s | -56.3°C | 0.0% | 0hPa | 0V | 00:00:00 | 00:00:00 | 00:00:00 | |
| LZ4TU-5 | 2026-09-04 18:09:02 | 42.93497 | 20.04379 | 18° | 11km/h | 19340m | 6.3m/s | -56.1°C | 0.0% | 0hPa | 0V | 00:00:00 | 00:00:00 | 00:00:00 | |
| LZ4TU-5 | 2026-09-04 18:07:48 | 42.93673 | 20.03970 | 101° | 22km/h | 18927m | 5.2m/s | -58.5°C | 0.0% | 0hPa | 0V | 00:00:00 | 00:00:00 | 00:00:00 | |
| LZ4TU-5 | 2026-09-04 18:07:43 | 42.93689 | 20.03929 | 106° | 29km/h | 18900m | 4.8m/s | -58.7°C | 0.0% | 0hPa | 0V | 00:00:00 | 00:00:00 | 00:00:00 | |
| LZ4TU-5 | 2026-09-04 18:06:03 | 42.93695 | 20.03285 | 327° | 15km/h | 18340m | 5.2m/s | -59.6°C | 0.0% | 0hPa | 0V | 00:00:00 | 00:00:00 | 00:00:00 | |
| LZ4TU-5 | 2026-09-04 18:05:59 | 42.93686 | 20.03286 | 45° | 15km/h | 18319m | 5.4m/s | -59.6°C | 0.0% | 0hPa | 0V | 00:00:00 | 00:00:00 | 00:00:00 | |
| LZ4TU-5 | 2026-09-04 18:04:37 | 42.93712 | 20.03219 | 99° | 5km/h | 17864m | 5.3m/s | -59.4°C | 0.0% | 0hPa | 0V | 00:00:00 | 00:00:00 | 00:00:00 | |
| LZ4TU-5 | 2026-09-04 18:04:32 | 42.93721 | 20.03207 | 133° | 13km/h | 17838m | 5.3m/s | -59.5°C | 0.0% | 0hPa | 0V | 00:00:00 | 00:00:00 | 00:00:00 | |
| LZ4TU-5 | 2026-09-04 18:02:59 | 42.94207 | 20.02930 | 137° | 16km/h | 17358m | 4.2m/s | -59.5°C | 0.6% | 0hPa | 0V | 00:00:00 | 00:00:00 | 00:00:00 | |
| LZ4TU-5 | 2026-09-04 18:02:54 | 42.94228 | 20.02913 | 148° | 33km/h | 17332m | 4.5m/s | -59.3°C | 0.6% | 0hPa | 0V | 00:00:00 | 00:00:00 | 00:00:00 | |
| LZ4TU-5 | 2026-09-04 18:01:40 | 42.94579 | 20.02510 | 116° | 29km/h | 16948m | 5.0m/s | -60.3°C | 0.7% | 0hPa | 0V | 00:00:00 | 00:00:00 | 00:00:00 | |
| LZ4TU-5 | 2026-09-04 18:01:35 | 42.94603 | 20.02477 | 144° | 27km/h | 16922m | 5.2m/s | -60.5°C | 0% | 0hPa | 0V | 00:00:00 | 00:00:00 | 00:00:00 | |
| LZ4TU-5 | 2026-09-04 18:00:21 | 42.94740 | 20.01744 | 97° | 18km/h | 16527m | 5.0m/s | -61.0°C | 1.7% | 0hPa | 0V | 00:00:00 | 00:00:00 | 00:00:00 | |
| LZ4TU-5 | 2026-09-04 18:00:16 | 42.94747 | 20.01706 | 87° | 26km/h | 16501m | 4.0m/s | -60.8°C | 1.7% | 0hPa | 0V | 00:00:00 | 00:00:00 | 00:00:00 | |
| LZ4TU-5 | 2026-09-04 17:58:55 | 42.94887 | 20.01149 | 145° | 29km/h | 16024m | 4.4m/s | -59.2°C | 3.3% | 0hPa | 0V | 00:00:00 | 00:00:00 | 00:00:00 | |
| LZ4TU-5 | 2026-09-04 17:58:51 | 42.94907 | 20.01124 | 140° | 20km/h | 16002m | 5.4m/s | -59.2°C | 3.4% | 0hPa | 0V | 00:00:00 | 00:00:00 | 00:00:00 | |
| LZ4TU-5 | 2026-09-04 17:58:46 | 42.94921 | 20.01102 | 140° | 20km/h | 15977m | 5.6m/s | -59.1°C | 3.5% | 0hPa | 0V | 00:00:00 | 00:00:00 | 00:00:00 | |
| LZ4TU-5 | 2026-09-04 17:58:41 | 42.94944 | 20.01081 | 148° | 18km/h | 15951m | 5.8m/s | -59.2°C | 3.7% | 0hPa | 0V | 00:00:00 | 00:00:00 | 00:00:00 | |
| LZ4TU-5 | 2026-09-04 17:57:22 | 42.95316 | 20.00751 | 150° | 29km/h | 15561m | 4.6m/s | -58.3°C | 0% | 0hPa | 0V | 00:00:00 | 00:00:00 | 00:00:00 | |
| LZ4TU-5 | 2026-09-04 17:56:07 | 42.95785 | 20.00121 | 122° | 27km/h | 15187m | 4.4m/s | -57.0°C | 12.4% | 0hPa | 0V | 00:00:00 | 00:00:00 | 00:00:00 | |
| LZ4TU-5 | 2026-09-04 17:56:03 | 42.95805 | 20.00085 | 136° | 31km/h | 15166m | 5.9m/s | -57.0°C | 12.8% | 0hPa | 0V | 00:00:00 | 00:00:00 | 00:00:00 | |
| LZ4TU-5 | 2026-09-04 17:54:48 | 42.96443 | 19.99792 | 168° | 40km/h | 14783m | 4.6m/s | -60.5°C | 22.2% | 0hPa | 0V | 00:00:00 | 00:00:00 | 00:00:00 | |
| LZ4TU-5 | 2026-09-04 17:54:44 | 42.96484 | 19.99773 | 159° | 46km/h | 14762m | 5.6m/s | -61.3°C | 23.1% | 0hPa | 0V | 00:00:00 | 00:00:00 | 00:00:00 | |
| LZ4TU-5 | 2026-09-04 17:53:30 | 42.97288 | 19.99431 | 170° | 42km/h | 14368m | 8.6m/s | -62.5°C | 36.7% | 0hPa | 0V | 00:00:00 | 00:00:00 | 00:00:00 | |
| LZ4TU-5 | 2026-09-04 17:53:25 | 42.97337 | 19.99424 | 162° | 33km/h | 14337m | 6.1m/s | -62.6°C | 37.8% | 0hPa | 0V | 00:00:00 | 00:00:00 | 00:00:00 | |
| LZ4TU-5 | 2026-09-04 17:52:09 | 42.98490 | 19.99272 | 158° | 80km/h | 13896m | 6.9m/s | -66.8°C | 48.5% | 0hPa | 0V | 00:00:00 | 00:00:00 | 00:00:00 | |
| LZ4TU-5 | 2026-09-04 17:52:04 | 42.98587 | 19.99236 | 170° | 71km/h | 13866m | 10.3m/s | -67.4°C | 48.8% | 0hPa | 0V | 00:00:00 | 00:00:00 | 00:00:00 | |
| LZ4TU-5 | 2026-09-04 17:50:50 | 42.99704 | 19.99345 | 195° | 62km/h | 13341m | 6.9m/s | -65.1°C | 46.8% | 0hPa | 0V | 00:00:00 | 00:00:00 | 00:00:00 | |
| LZ4TU-5 | 2026-09-04 17:50:46 | 42.99770 | 19.99386 | 213° | 68km/h | 13317m | 5.8m/s | -65.0°C | 46.5% | 0hPa | 0V | 00:00:00 | 00:00:00 | 00:00:00 | |
| LZ4TU-5 | 2026-09-04 17:49:34 | 43.00991 | 20.00037 | 197° | 86km/h | 12902m | 4.8m/s | -63.3°C | 46.1% | 0hPa | 0V | 00:00:00 | 00:00:00 | 00:00:00 | |
| LZ4TU-5 | 2026-09-04 17:49:29 | 43.01076 | 20.00089 | 203° | 71km/h | 12874m | 5.0m/s | -63.1°C | 46.1% | 0hPa | 0V | 00:00:00 | 00:00:00 | 00:00:00 | |
| LZ4TU-5 | 2026-09-04 17:48:15 | 43.02464 | 20.00534 | 197° | 75km/h | 12459m | 4.4m/s | -59.9°C | 44.4% | 0hPa | 0V | 00:00:00 | 00:00:00 | 00:00:00 | |
| LZ4TU-5 | 2026-09-04 17:48:10 | 43.02551 | 20.00550 | 187° | 69km/h | 12430m | 4.1m/s | -59.7°C | 44.3% | 0hPa | 0V | 00:00:00 | 00:00:00 | 00:00:00 | |
| LZ4TU-5 | 2026-09-04 17:46:50 | 43.04060 | 20.00928 | 187° | 66km/h | 11957m | 6.4m/s | -55.8°C | 54.7% | 0hPa | 0V | 00:00:00 | 00:00:00 | 00:00:00 | |
| LZ4TU-5 | 2026-09-04 17:45:36 | 43.05282 | 20.00973 | 172° | 55km/h | 11524m | 6.9m/s | -52.4°C | 59.5% | 0hPa | 0V | 00:00:00 | 00:00:00 | 00:00:00 | |
| LZ4TU-5 | 2026-09-04 17:45:31 | 43.05356 | 20.00949 | 177° | 75km/h | 11499m | 4.6m/s | -52.2°C | 59.8% | 0hPa | 0V | 00:00:00 | 00:00:00 | 00:00:00 | |
| LZ4TU-5 | 2026-09-04 17:44:16 | 43.06412 | 20.00898 | 181° | 53km/h | 11060m | 4.7m/s | -48.2°C | 57.4% | 0hPa | 0V | 00:00:00 | 00:00:00 | 00:00:00 | |
| LZ4TU-5 | 2026-09-04 17:44:11 | 43.06491 | 20.00901 | 182° | 57km/h | 11037m | 4.8m/s | -48.0°C | 57.4% | 0hPa | 0V | 00:00:00 | 00:00:00 | 00:00:00 | |
| LZ4TU-5 | 2026-09-04 17:42:57 | 43.07421 | 20.00840 | 166° | 49km/h | 10610m | 4.8m/s | -44.1°C | 61.5% | 0hPa | 0V | 00:00:00 | 00:00:00 | 00:00:00 | |
| LZ4TU-5 | 2026-09-04 17:42:52 | 43.07492 | 20.00833 | 181° | 47km/h | 10584m | 6.4m/s | -44.0°C | 61.7% | 0hPa | 0V | 00:00:00 | 00:00:00 | 00:00:00 | |
| LZ4TU-5 | 2026-09-04 17:41:37 | 43.08468 | 20.00813 | 200° | 37km/h | 10166m | 5.2m/s | -40.2°C | 58.3% | 0hPa | 0V | 00:00:00 | 00:00:00 | 00:00:00 | |
| LZ4TU-5 | 2026-09-04 17:41:33 | 43.08520 | 20.00822 | 178° | 71km/h | 10146m | 6.6m/s | -40.1°C | 58.0% | 0hPa | 0V | 00:00:00 | 00:00:00 | 00:00:00 | |
| LZ4TU-5 | 2026-09-04 17:40:19 | 43.09670 | 20.00685 | 168° | 68km/h | 9708m | 6.8m/s | -36.4°C | 0% | 0hPa | 0V | 00:00:00 | 00:00:00 | 00:00:00 | |
| LZ4TU-5 | 2026-09-04 17:40:14 | 43.09741 | 20.00654 | 174° | 66km/h | 9682m | 4.9m/s | -36.2°C | 41.0% | 0hPa | 0V | 00:00:00 | 00:00:00 | 00:00:00 | |
| LZ4TU-5 | 2026-09-04 17:38:55 | 43.10944 | 20.00396 | 183° | 49km/h | 9253m | 6.2m/s | -32.3°C | 32.5% | 0hPa | 0V | 00:00:00 | 00:00:00 | 00:00:00 | |
| LZ4TU-5 | 2026-09-04 17:37:36 | 43.12057 | 20.00169 | 158° | 38km/h | 8828m | 5.8m/s | -28.6°C | 28.6% | 0hPa | 0V | 00:00:00 | 00:00:00 | 00:00:00 | |
| LZ4TU-5 | 2026-09-04 17:37:30 | 43.12134 | 20.00162 | 189° | 55km/h | 8791m | 6.6m/s | -28.3°C | 27.8% | 0hPa | 0V | 00:00:00 | 00:00:00 | 00:00:00 | |
| LZ4TU-5 | 2026-09-04 17:37:23 | 43.12228 | 20.00150 | 175° | 60km/h | 8757m | 4.1m/s | -27.9°C | 26.5% | 0hPa | 0V | 00:00:00 | 00:00:00 | 00:00:00 | |
| LZ4TU-5 | 2026-09-04 17:36:55 | 43.12651 | 20.00043 | 187° | 58km/h | 8597m | 7.6m/s | -26.5°C | 22.1% | 0hPa | 0V | 00:00:00 | 00:00:00 | 00:00:00 |